logo
Rechercher aéroport 
image banner adimage banner adimage banner ad
image banner ad

UAIT - Turkistan

Situé à Turkistan, Kazakhstan

ICAO - , IATA -

Données fournies par Airmate  

Information générale

Coordonnées: N43°18'40" E68°33'1"
Élévation : 989 feet MSL.
Variation magnétique : 6° East
Voir autres Aéroports à South Kazakhstan

Données opérationnelles

Special qualification required
Heure actuelle UTC:
Heure actuelle locale:
Météo à : - ( 0 km )
METAR: ROTM 281356Z 16010G28KT 9999 VCSH BKN015 BKN040 OVC070 23/19 A3008 RMK SLP188 T02280194
Voir NOTAMs / SUP AIP / TFR affectant cet aéroport [VIEW]
Fréquences de communication: [VIEW]

Pistes:

Identifiant RWYQFULongueur (ft)Largeur (ft)SurfaceLDA (ft)
0556°10827148ASPH10827
23236°10827148ASPH10827

Coordonnées de l'aéroport

Adresse: Turkistan Kazakhstan

Vue satellite de UAIT